sensor_id;sensor_type;location;lat;lon;timestamp;P1;durP1;ratioP1;P2;durP2;ratioP2
10114;SDS011;5097;43.260;27.812;2023-09-12T00:01:17;2.93;;;2.73;;
10114;SDS011;5097;43.260;27.812;2023-09-12T00:04:02;3.53;;;3.23;;
10114;SDS011;5097;43.260;27.812;2023-09-12T00:06:47;3.20;;;2.90;;
10114;SDS011;5097;43.260;27.812;2023-09-12T00:09:30;3.37;;;3.07;;
10114;SDS011;5097;43.260;27.812;2023-09-12T00:12:15;3.20;;;3.00;;
10114;SDS011;5097;43.260;27.812;2023-09-12T00:14:59;4.00;;;3.70;;
10114;SDS011;5097;43.260;27.812;2023-09-12T00:17:46;3.33;;;3.03;;
10114;SDS011;5097;43.260;27.812;2023-09-12T00:20:33;3.13;;;2.80;;
10114;SDS011;5097;43.260;27.812;2023-09-12T00:23:17;3.50;;;2.70;;
10114;SDS011;5097;43.260;27.812;2023-09-12T00:26:02;3.17;;;2.83;;
10114;SDS011;5097;43.260;27.812;2023-09-12T00:28:46;3.07;;;2.87;;
10114;SDS011;5097;43.260;27.812;2023-09-12T00:31:30;4.20;;;3.43;;
10114;SDS011;5097;43.260;27.812;2023-09-12T00:34:15;3.60;;;3.30;;
10114;SDS011;5097;43.260;27.812;2023-09-12T00:37:01;3.67;;;3.37;;
10114;SDS011;5097;43.260;27.812;2023-09-12T00:39:45;3.37;;;2.93;;
10114;SDS011;5097;43.260;27.812;2023-09-12T00:42:29;3.50;;;3.20;;
10114;SDS011;5097;43.260;27.812;2023-09-12T00:45:13;4.37;;;3.20;;
10114;SDS011;5097;43.260;27.812;2023-09-12T00:47:57;2.93;;;2.60;;
10114;SDS011;5097;43.260;27.812;2023-09-12T00:50:43;3.03;;;2.83;;
10114;SDS011;5097;43.260;27.812;2023-09-12T00:53:31;3.73;;;3.40;;
10114;SDS011;5097;43.260;27.812;2023-09-12T00:56:15;3.43;;;3.07;;
10114;SDS011;5097;43.260;27.812;2023-09-12T00:59:00;4.03;;;2.80;;
10114;SDS011;5097;43.260;27.812;2023-09-12T01:01:45;4.20;;;3.40;;
10114;SDS011;5097;43.260;27.812;2023-09-12T01:04:29;3.50;;;3.20;;
10114;SDS011;5097;43.260;27.812;2023-09-12T01:07:16;3.27;;;3.07;;
10114;SDS011;5097;43.260;27.812;2023-09-12T01:10:02;4.30;;;2.90;;
10114;SDS011;5097;43.260;27.812;2023-09-12T01:12:47;3.93;;;3.10;;
10114;SDS011;5097;43.260;27.812;2023-09-12T01:15:31;4.60;;;4.00;;
10114;SDS011;5097;43.260;27.812;2023-09-12T01:18:15;3.50;;;3.20;;
10114;SDS011;5097;43.260;27.812;2023-09-12T01:21:04;3.93;;;3.27;;
10114;SDS011;5097;43.260;27.812;2023-09-12T01:24:11;3.53;;;3.23;;
10114;SDS011;5097;43.260;27.812;2023-09-12T01:27:19;3.97;;;3.67;;
10114;SDS011;5097;43.260;27.812;2023-09-12T01:30:05;3.20;;;3.00;;
10114;SDS011;5097;43.260;27.812;2023-09-12T01:32:51;5.00;;;3.27;;
10114;SDS011;5097;43.260;27.812;2023-09-12T01:35:36;3.80;;;3.40;;
10114;SDS011;5097;43.260;27.812;2023-09-12T01:38:20;4.13;;;3.40;;
10114;SDS011;5097;43.260;27.812;2023-09-12T01:41:04;3.30;;;3.00;;
10114;SDS011;5097;43.260;27.812;2023-09-12T01:43:51;3.73;;;3.27;;
10114;SDS011;5097;43.260;27.812;2023-09-12T01:46:36;3.27;;;3.07;;
10114;SDS011;5097;43.260;27.812;2023-09-12T01:49:22;3.53;;;3.23;;
10114;SDS011;5097;43.260;27.812;2023-09-12T01:52:08;2.80;;;2.60;;
10114;SDS011;5097;43.260;27.812;2023-09-12T01:54:53;3.50;;;3.23;;
10114;SDS011;5097;43.260;27.812;2023-09-12T01:57:39;8.97;;;3.20;;
10114;SDS011;5097;43.260;27.812;2023-09-12T02:00:25;3.37;;;3.07;;
10114;SDS011;5097;43.260;27.812;2023-09-12T02:03:09;3.37;;;3.07;;
10114;SDS011;5097;43.260;27.812;2023-09-12T02:05:53;3.37;;;3.07;;
10114;SDS011;5097;43.260;27.812;2023-09-12T02:08:37;3.60;;;3.30;;
10114;SDS011;5097;43.260;27.812;2023-09-12T02:11:23;3.77;;;3.47;;
10114;SDS011;5097;43.260;27.812;2023-09-12T02:14:10;3.10;;;2.90;;
10114;SDS011;5097;43.260;27.812;2023-09-12T02:16:56;3.00;;;2.80;;
10114;SDS011;5097;43.260;27.812;2023-09-12T02:19:40;3.93;;;3.53;;
10114;SDS011;5097;43.260;27.812;2023-09-12T02:22:24;2.97;;;2.77;;
10114;SDS011;5097;43.260;27.812;2023-09-12T02:25:08;3.43;;;3.13;;
10114;SDS011;5097;43.260;27.812;2023-09-12T02:27:52;3.87;;;3.47;;
10114;SDS011;5097;43.260;27.812;2023-09-12T02:30:37;3.43;;;3.13;;
10114;SDS011;5097;43.260;27.812;2023-09-12T02:33:24;3.50;;;3.10;;
10114;SDS011;5097;43.260;27.812;2023-09-12T02:36:09;3.50;;;3.20;;
10114;SDS011;5097;43.260;27.812;2023-09-12T02:38:53;3.63;;;3.33;;
10114;SDS011;5097;43.260;27.812;2023-09-12T02:41:37;4.27;;;3.33;;
10114;SDS011;5097;43.260;27.812;2023-09-12T02:44:21;4.07;;;3.50;;
10114;SDS011;5097;43.260;27.812;2023-09-12T02:47:05;3.77;;;3.37;;
10114;SDS011;5097;43.260;27.812;2023-09-12T02:49:50;3.20;;;3.00;;
10114;SDS011;5097;43.260;27.812;2023-09-12T02:52:34;3.80;;;3.40;;
10114;SDS011;5097;43.260;27.812;2023-09-12T02:55:18;3.93;;;3.63;;
10114;SDS011;5097;43.260;27.812;2023-09-12T02:58:02;4.23;;;3.27;;
10114;SDS011;5097;43.260;27.812;2023-09-12T03:00:46;3.40;;;3.10;;
10114;SDS011;5097;43.260;27.812;2023-09-12T03:03:32;4.10;;;3.70;;
10114;SDS011;5097;43.260;27.812;2023-09-12T03:06:18;3.57;;;3.23;;
10114;SDS011;5097;43.260;27.812;2023-09-12T03:09:02;5.53;;;2.80;;
10114;SDS011;5097;43.260;27.812;2023-09-12T03:11:48;3.47;;;3.17;;
10114;SDS011;5097;43.260;27.812;2023-09-12T03:14:33;4.23;;;3.83;;
10114;SDS011;5097;43.260;27.812;2023-09-12T03:17:17;3.80;;;3.40;;
10114;SDS011;5097;43.260;27.812;2023-09-12T03:20:01;3.07;;;2.87;;
10114;SDS011;5097;43.260;27.812;2023-09-12T03:22:50;4.27;;;3.37;;
10114;SDS011;5097;43.260;27.812;2023-09-12T03:25:35;3.80;;;3.50;;
10114;SDS011;5097;43.260;27.812;2023-09-12T03:28:20;3.83;;;3.47;;
10114;SDS011;5097;43.260;27.812;2023-09-12T03:31:05;3.30;;;3.10;;
10114;SDS011;5097;43.260;27.812;2023-09-12T03:33:50;4.23;;;3.73;;
10114;SDS011;5097;43.260;27.812;2023-09-12T03:36:35;4.93;;;3.50;;
10114;SDS011;5097;43.260;27.812;2023-09-12T03:39:20;3.57;;;3.27;;
10114;SDS011;5097;43.260;27.812;2023-09-12T03:42:05;3.67;;;3.37;;
10114;SDS011;5097;43.260;27.812;2023-09-12T03:44:50;3.63;;;3.17;;
10114;SDS011;5097;43.260;27.812;2023-09-12T03:47:33;3.77;;;3.47;;
10114;SDS011;5097;43.260;27.812;2023-09-12T03:50:17;3.83;;;3.43;;
10114;SDS011;5097;43.260;27.812;2023-09-12T03:53:01;3.77;;;3.47;;
10114;SDS011;5097;43.260;27.812;2023-09-12T03:55:47;4.13;;;3.63;;
10114;SDS011;5097;43.260;27.812;2023-09-12T03:58:31;4.27;;;3.63;;
10114;SDS011;5097;43.260;27.812;2023-09-12T04:01:15;4.13;;;3.47;;
10114;SDS011;5097;43.260;27.812;2023-09-12T04:04:00;3.77;;;3.47;;
10114;SDS011;5097;43.260;27.812;2023-09-12T04:06:45;3.77;;;3.17;;
10114;SDS011;5097;43.260;27.812;2023-09-12T04:09:29;4.00;;;3.60;;
10114;SDS011;5097;43.260;27.812;2023-09-12T04:12:15;3.13;;;2.93;;
10114;SDS011;5097;43.260;27.812;2023-09-12T04:14:59;3.83;;;3.10;;
10114;SDS011;5097;43.260;27.812;2023-09-12T04:17:45;4.43;;;4.03;;
10114;SDS011;5097;43.260;27.812;2023-09-12T04:20:29;3.80;;;3.50;;
10114;SDS011;5097;43.260;27.812;2023-09-12T04:23:13;4.00;;;3.60;;
10114;SDS011;5097;43.260;27.812;2023-09-12T04:25:57;3.23;;;3.03;;
10114;SDS011;5097;43.260;27.812;2023-09-12T04:28:44;3.80;;;3.30;;
10114;SDS011;5097;43.260;27.812;2023-09-12T04:31:30;3.67;;;3.37;;
10114;SDS011;5097;43.260;27.812;2023-09-12T04:34:14;3.42;;;3.15;;
10114;SDS011;5097;43.260;27.812;2023-09-12T04:36:58;4.47;;;3.40;;
10114;SDS011;5097;43.260;27.812;2023-09-12T04:39:45;4.43;;;3.20;;
10114;SDS011;5097;43.260;27.812;2023-09-12T04:42:30;4.10;;;3.63;;
10114;SDS011;5097;43.260;27.812;2023-09-12T04:45:16;3.55;;;3.25;;
10114;SDS011;5097;43.260;27.812;2023-09-12T04:48:00;3.42;;;3.13;;
10114;SDS011;5097;43.260;27.812;2023-09-12T04:50:44;3.70;;;2.88;;
10114;SDS011;5097;43.260;27.812;2023-09-12T04:53:29;3.65;;;3.35;;
10114;SDS011;5097;43.260;27.812;2023-09-12T04:56:18;5.72;;;5.20;;
10114;SDS011;5097;43.260;27.812;2023-09-12T04:59:02;11.13;;;8.25;;
10114;SDS011;5097;43.260;27.812;2023-09-12T05:01:50;8.85;;;6.55;;
10114;SDS011;5097;43.260;27.812;2023-09-12T05:04:34;5.55;;;5.05;;
10114;SDS011;5097;43.260;27.812;2023-09-12T05:07:19;6.38;;;5.28;;
10114;SDS011;5097;43.260;27.812;2023-09-12T05:10:03;4.13;;;3.78;;
10114;SDS011;5097;43.260;27.812;2023-09-12T05:12:48;4.60;;;3.67;;
10114;SDS011;5097;43.260;27.812;2023-09-12T05:15:33;4.60;;;3.47;;
10114;SDS011;5097;43.260;27.812;2023-09-12T05:18:19;4.75;;;4.13;;
10114;SDS011;5097;43.260;27.812;2023-09-12T05:21:03;4.70;;;4.30;;
10114;SDS011;5097;43.260;27.812;2023-09-12T05:23:48;4.78;;;4.38;;
10114;SDS011;5097;43.260;27.812;2023-09-12T05:26:32;7.30;;;4.45;;
10114;SDS011;5097;43.260;27.812;2023-09-12T05:29:16;6.35;;;4.63;;
10114;SDS011;5097;43.260;27.812;2023-09-12T05:32:00;4.85;;;4.32;;
10114;SDS011;5097;43.260;27.812;2023-09-12T05:34:46;5.40;;;4.80;;
10114;SDS011;5097;43.260;27.812;2023-09-12T05:37:34;6.80;;;4.85;;
10114;SDS011;5097;43.260;27.812;2023-09-12T05:40:18;5.22;;;4.53;;
10114;SDS011;5097;43.260;27.812;2023-09-12T05:43:04;5.10;;;4.60;;
10114;SDS011;5097;43.260;27.812;2023-09-12T05:45:48;5.45;;;4.75;;
10114;SDS011;5097;43.260;27.812;2023-09-12T05:48:32;5.32;;;4.60;;
10114;SDS011;5097;43.260;27.812;2023-09-12T05:51:18;6.38;;;4.72;;
10114;SDS011;5097;43.260;27.812;2023-09-12T05:54:02;5.80;;;4.55;;
10114;SDS011;5097;43.260;27.812;2023-09-12T05:56:46;5.65;;;5.15;;
10114;SDS011;5097;43.260;27.812;2023-09-12T05:59:30;5.75;;;4.85;;
10114;SDS011;5097;43.260;27.812;2023-09-12T06:02:15;5.57;;;4.72;;
10114;SDS011;5097;43.260;27.812;2023-09-12T06:04:59;4.15;;;3.80;;
10114;SDS011;5097;43.260;27.812;2023-09-12T06:07:46;4.68;;;4.25;;
10114;SDS011;5097;43.260;27.812;2023-09-12T06:10:30;5.47;;;4.35;;
10114;SDS011;5097;43.260;27.812;2023-09-12T06:13:14;3.78;;;3.47;;
10114;SDS011;5097;43.260;27.812;2023-09-12T06:15:58;4.60;;;3.63;;
10114;SDS011;5097;43.260;27.812;2023-09-12T06:18:42;4.10;;;3.30;;
10114;SDS011;5097;43.260;27.812;2023-09-12T06:21:27;4.15;;;3.50;;
10114;SDS011;5097;43.260;27.812;2023-09-12T06:24:13;3.65;;;3.25;;
10114;SDS011;5097;43.260;27.812;2023-09-12T06:27:00;4.40;;;3.85;;
10114;SDS011;5097;43.260;27.812;2023-09-12T06:29:44;4.38;;;3.25;;
10114;SDS011;5097;43.260;27.812;2023-09-12T06:32:28;4.32;;;3.47;;
10114;SDS011;5097;43.260;27.812;2023-09-12T06:35:12;5.03;;;3.95;;
10114;SDS011;5097;43.260;27.812;2023-09-12T06:37:56;3.78;;;3.20;;
10114;SDS011;5097;43.260;27.812;2023-09-12T06:40:41;3.90;;;3.22;;
10114;SDS011;5097;43.260;27.812;2023-09-12T06:43:26;2.88;;;2.67;;
10114;SDS011;5097;43.260;27.812;2023-09-12T06:46:10;3.15;;;2.63;;
10114;SDS011;5097;43.260;27.812;2023-09-12T06:48:54;4.28;;;3.55;;
10114;SDS011;5097;43.260;27.812;2023-09-12T06:51:38;3.47;;;3.28;;
10114;SDS011;5097;43.260;27.812;2023-09-12T06:54:22;3.85;;;3.55;;
10114;SDS011;5097;43.260;27.812;2023-09-12T06:57:07;3.03;;;2.70;;
10114;SDS011;5097;43.260;27.812;2023-09-12T06:59:51;2.25;;;2.10;;
10114;SDS011;5097;43.260;27.812;2023-09-12T07:02:35;3.80;;;2.92;;
10114;SDS011;5097;43.260;27.812;2023-09-12T07:05:20;5.32;;;4.70;;
10114;SDS011;5097;43.260;27.812;2023-09-12T07:08:04;2.47;;;2.28;;
10114;SDS011;5097;43.260;27.812;2023-09-12T07:10:49;2.63;;;2.42;;
10114;SDS011;5097;43.260;27.812;2023-09-12T07:13:34;2.25;;;2.05;;
10114;SDS011;5097;43.260;27.812;2023-09-12T07:16:18;2.55;;;2.35;;
10114;SDS011;5097;43.260;27.812;2023-09-12T07:19:03;2.33;;;2.20;;
10114;SDS011;5097;43.260;27.812;2023-09-12T07:21:47;4.10;;;2.50;;
10114;SDS011;5097;43.260;27.812;2023-09-12T07:24:31;2.65;;;2.38;;
10114;SDS011;5097;43.260;27.812;2023-09-12T07:27:15;4.10;;;2.53;;
10114;SDS011;5097;43.260;27.812;2023-09-12T07:30:01;2.40;;;2.20;;
10114;SDS011;5097;43.260;27.812;2023-09-12T07:32:46;3.40;;;2.88;;
10114;SDS011;5097;43.260;27.812;2023-09-12T07:35:30;3.78;;;3.45;;
10114;SDS011;5097;43.260;27.812;2023-09-12T07:38:14;3.97;;;3.40;;
10114;SDS011;5097;43.260;27.812;2023-09-12T07:40:58;5.07;;;3.80;;
10114;SDS011;5097;43.260;27.812;2023-09-12T07:43:42;3.35;;;2.95;;
10114;SDS011;5097;43.260;27.812;2023-09-12T07:46:28;3.13;;;2.70;;
10114;SDS011;5097;43.260;27.812;2023-09-12T07:49:12;2.67;;;2.47;;
10114;SDS011;5097;43.260;27.812;2023-09-12T07:51:56;2.85;;;2.65;;
10114;SDS011;5097;43.260;27.812;2023-09-12T07:54:40;2.30;;;2.20;;
10114;SDS011;5097;43.260;27.812;2023-09-12T07:57:24;2.20;;;2.10;;
10114;SDS011;5097;43.260;27.812;2023-09-12T08:00:09;2.30;;;2.10;;
10114;SDS011;5097;43.260;27.812;2023-09-12T08:02:55;2.72;;;2.50;;
10114;SDS011;5097;43.260;27.812;2023-09-12T08:05:39;2.38;;;2.28;;
10114;SDS011;5097;43.260;27.812;2023-09-12T08:08:23;2.72;;;2.53;;
10114;SDS011;5097;43.260;27.812;2023-09-12T08:11:07;3.65;;;2.17;;
10114;SDS011;5097;43.260;27.812;2023-09-12T08:13:51;2.40;;;2.20;;
10114;SDS011;5097;43.260;27.812;2023-09-12T08:16:39;2.38;;;2.28;;
10114;SDS011;5097;43.260;27.812;2023-09-12T08:19:24;3.63;;;2.03;;
10114;SDS011;5097;43.260;27.812;2023-09-12T08:22:08;1.98;;;1.83;;
10114;SDS011;5097;43.260;27.812;2023-09-12T08:24:53;2.30;;;2.10;;
10114;SDS011;5097;43.260;27.812;2023-09-12T08:27:37;2.33;;;2.10;;
10114;SDS011;5097;43.260;27.812;2023-09-12T08:30:21;2.70;;;2.15;;
10114;SDS011;5097;43.260;27.812;2023-09-12T08:33:07;2.05;;;1.90;;
10114;SDS011;5097;43.260;27.812;2023-09-12T08:35:53;2.30;;;1.92;;
10114;SDS011;5097;43.260;27.812;2023-09-12T08:38:37;2.15;;;2.00;;
10114;SDS011;5097;43.260;27.812;2023-09-12T08:41:21;3.25;;;2.00;;
10114;SDS011;5097;43.260;27.812;2023-09-12T08:44:05;2.38;;;2.20;;
10114;SDS011;5097;43.260;27.812;2023-09-12T08:46:50;2.22;;;2.13;;
10114;SDS011;5097;43.260;27.812;2023-09-12T08:49:34;2.00;;;1.90;;
10114;SDS011;5097;43.260;27.812;2023-09-12T08:52:21;3.30;;;2.10;;
10114;SDS011;5097;43.260;27.812;2023-09-12T08:55:05;2.13;;;1.92;;
10114;SDS011;5097;43.260;27.812;2023-09-12T08:57:50;2.28;;;2.10;;
10114;SDS011;5097;43.260;27.812;2023-09-12T09:00:34;2.92;;;2.00;;
10114;SDS011;5097;43.260;27.812;2023-09-12T09:03:20;2.15;;;1.95;;
10114;SDS011;5097;43.260;27.812;2023-09-12T09:06:05;2.00;;;1.77;;
10114;SDS011;5097;43.260;27.812;2023-09-12T09:08:53;2.25;;;2.05;;
10114;SDS011;5097;43.260;27.812;2023-09-12T09:11:37;2.05;;;1.90;;
10114;SDS011;5097;43.260;27.812;2023-09-12T09:14:22;1.98;;;1.88;;
10114;SDS011;5097;43.260;27.812;2023-09-12T09:17:05;1.92;;;1.83;;
10114;SDS011;5097;43.260;27.812;2023-09-12T09:20:10;2.17;;;1.95;;
10114;SDS011;5097;43.260;27.812;2023-09-12T09:23:06;2.10;;;2.00;;
10114;SDS011;5097;43.260;27.812;2023-09-12T09:25:53;1.90;;;1.80;;
10114;SDS011;5097;43.260;27.812;2023-09-12T09:28:37;2.00;;;1.90;;
10114;SDS011;5097;43.260;27.812;2023-09-12T09:31:21;2.00;;;1.80;;
10114;SDS011;5097;43.260;27.812;2023-09-12T09:34:10;3.72;;;2.08;;
10114;SDS011;5097;43.260;27.812;2023-09-12T09:36:58;2.17;;;2.03;;
10114;SDS011;5097;43.260;27.812;2023-09-12T09:39:46;3.03;;;2.80;;
10114;SDS011;5097;43.260;27.812;2023-09-12T09:42:36;2.67;;;2.05;;
10114;SDS011;5097;43.260;27.812;2023-09-12T09:45:21;2.58;;;2.38;;
10114;SDS011;5097;43.260;27.812;2023-09-12T09:48:05;2.15;;;2.05;;
10114;SDS011;5097;43.260;27.812;2023-09-12T09:50:50;2.10;;;2.00;;
10114;SDS011;5097;43.260;27.812;2023-09-12T09:53:35;2.55;;;2.10;;
10114;SDS011;5097;43.260;27.812;2023-09-12T09:56:21;2.35;;;2.15;;
10114;SDS011;5097;43.260;27.812;2023-09-12T09:59:06;1.95;;;1.85;;
10114;SDS011;5097;43.260;27.812;2023-09-12T10:01:53;2.05;;;1.85;;
10114;SDS011;5097;43.260;27.812;2023-09-12T10:04:40;1.80;;;1.70;;
10114;SDS011;5097;43.260;27.812;2023-09-12T10:07:28;2.25;;;1.92;;
10114;SDS011;5097;43.260;27.812;2023-09-12T10:10:16;2.47;;;2.38;;
10114;SDS011;5097;43.260;27.812;2023-09-12T10:13:02;1.80;;;1.70;;
10114;SDS011;5097;43.260;27.812;2023-09-12T10:15:49;2.00;;;1.90;;
10114;SDS011;5097;43.260;27.812;2023-09-12T10:18:35;1.75;;;1.65;;
10114;SDS011;5097;43.260;27.812;2023-09-12T10:21:30;2.50;;;2.05;;
10114;SDS011;5097;43.260;27.812;2023-09-12T10:24:15;1.75;;;1.65;;
10114;SDS011;5097;43.260;27.812;2023-09-12T10:26:59;2.00;;;1.90;;
10114;SDS011;5097;43.260;27.812;2023-09-12T10:29:45;2.20;;;2.00;;
10114;SDS011;5097;43.260;27.812;2023-09-12T10:32:33;1.83;;;1.73;;
10114;SDS011;5097;43.260;27.812;2023-09-12T10:35:19;1.60;;;1.50;;
10114;SDS011;5097;43.260;27.812;2023-09-12T10:38:04;1.77;;;1.67;;
10114;SDS011;5097;43.260;27.812;2023-09-12T10:40:51;1.90;;;1.80;;
10114;SDS011;5097;43.260;27.812;2023-09-12T10:43:39;1.85;;;1.75;;
10114;SDS011;5097;43.260;27.812;2023-09-12T10:46:25;1.45;;;1.42;;
10114;SDS011;5097;43.260;27.812;2023-09-12T10:49:12;1.40;;;1.30;;
10114;SDS011;5097;43.260;27.812;2023-09-12T10:51:59;1.35;;;1.30;;
10114;SDS011;5097;43.260;27.812;2023-09-12T10:54:44;1.60;;;1.50;;
10114;SDS011;5097;43.260;27.812;2023-09-12T10:57:30;5.13;;;1.70;;
10114;SDS011;5097;43.260;27.812;2023-09-12T11:00:16;1.70;;;1.60;;
10114;SDS011;5097;43.260;27.812;2023-09-12T11:06:27;1.83;;;1.70;;
10114;SDS011;5097;43.260;27.812;2023-09-12T11:09:17;1.42;;;1.33;;
10114;SDS011;5097;43.260;27.812;2023-09-12T11:12:03;1.75;;;1.65;;
10114;SDS011;5097;43.260;27.812;2023-09-12T11:15:04;1.63;;;1.52;;
10114;SDS011;5097;43.260;27.812;2023-09-12T11:17:59;2.10;;;1.90;;
10114;SDS011;5097;43.260;27.812;2023-09-12T11:20:50;1.30;;;1.30;;
10114;SDS011;5097;43.260;27.812;2023-09-12T11:23:37;1.88;;;1.77;;
10114;SDS011;5097;43.260;27.812;2023-09-12T11:26:24;1.60;;;1.50;;
10114;SDS011;5097;43.260;27.812;2023-09-12T11:29:10;1.70;;;1.60;;
10114;SDS011;5097;43.260;27.812;2023-09-12T11:31:56;1.63;;;1.52;;
10114;SDS011;5097;43.260;27.812;2023-09-12T11:34:42;1.42;;;1.30;;
10114;SDS011;5097;43.260;27.812;2023-09-12T11:37:27;1.80;;;1.70;;
10114;SDS011;5097;43.260;27.812;2023-09-12T11:40:20;1.77;;;1.67;;
10114;SDS011;5097;43.260;27.812;2023-09-12T11:43:06;1.60;;;1.50;;
10114;SDS011;5097;43.260;27.812;2023-09-12T11:46:01;1.70;;;1.60;;
10114;SDS011;5097;43.260;27.812;2023-09-12T11:48:45;1.80;;;1.70;;
10114;SDS011;5097;43.260;27.812;2023-09-12T11:51:29;1.92;;;1.38;;
10114;SDS011;5097;43.260;27.812;2023-09-12T11:54:14;1.77;;;1.67;;
10114;SDS011;5097;43.260;27.812;2023-09-12T11:57:00;1.65;;;1.55;;
10114;SDS011;5097;43.260;27.812;2023-09-12T11:59:45;1.75;;;1.65;;
10114;SDS011;5097;43.260;27.812;2023-09-12T12:02:31;1.33;;;1.30;;
10114;SDS011;5097;43.260;27.812;2023-09-12T12:05:15;2.53;;;1.50;;
10114;SDS011;5097;43.260;27.812;2023-09-12T12:08:00;1.70;;;1.60;;
10114;SDS011;5097;43.260;27.812;2023-09-12T12:11:06;2.15;;;1.52;;
10114;SDS011;5097;43.260;27.812;2023-09-12T12:13:51;1.88;;;1.77;;
10114;SDS011;5097;43.260;27.812;2023-09-12T12:16:35;1.58;;;1.48;;
10114;SDS011;5097;43.260;27.812;2023-09-12T12:19:19;1.55;;;1.45;;
10114;SDS011;5097;43.260;27.812;2023-09-12T12:22:04;1.80;;;1.70;;
10114;SDS011;5097;43.260;27.812;2023-09-12T12:24:50;2.45;;;1.73;;
10114;SDS011;5097;43.260;27.812;2023-09-12T12:27:37;1.75;;;1.65;;
10114;SDS011;5097;43.260;27.812;2023-09-12T12:30:23;2.72;;;1.63;;
10114;SDS011;5097;43.260;27.812;2023-09-12T12:33:08;1.65;;;1.55;;
10114;SDS011;5097;43.260;27.812;2023-09-12T12:36:13;1.20;;;1.20;;
10114;SDS011;5097;43.260;27.812;2023-09-12T12:38:57;2.10;;;1.90;;
10114;SDS011;5097;43.260;27.812;2023-09-12T12:41:42;1.23;;;1.23;;
10114;SDS011;5097;43.260;27.812;2023-09-12T12:44:33;1.27;;;1.27;;
10114;SDS011;5097;43.260;27.812;2023-09-12T12:47:24;1.77;;;1.55;;
10114;SDS011;5097;43.260;27.812;2023-09-12T12:50:10;1.40;;;1.30;;
10114;SDS011;5097;43.260;27.812;2023-09-12T12:52:54;1.63;;;1.52;;
10114;SDS011;5097;43.260;27.812;2023-09-12T12:55:38;1.65;;;1.55;;
10114;SDS011;5097;43.260;27.812;2023-09-12T12:58:22;1.60;;;1.50;;
10114;SDS011;5097;43.260;27.812;2023-09-12T13:01:06;1.48;;;1.40;;
10114;SDS011;5097;43.260;27.812;2023-09-12T13:03:52;1.90;;;1.40;;
10114;SDS011;5097;43.260;27.812;2023-09-12T13:06:38;1.67;;;1.58;;
10114;SDS011;5097;43.260;27.812;2023-09-12T13:09:23;1.70;;;1.60;;
10114;SDS011;5097;43.260;27.812;2023-09-12T13:12:07;1.55;;;1.45;;
10114;SDS011;5097;43.260;27.812;2023-09-12T13:14:52;1.85;;;1.75;;
10114;SDS011;5097;43.260;27.812;2023-09-12T13:17:37;1.83;;;1.70;;
10114;SDS011;5097;43.260;27.812;2023-09-12T13:20:22;2.33;;;2.17;;
10114;SDS011;5097;43.260;27.812;2023-09-12T13:23:06;2.65;;;2.08;;
10114;SDS011;5097;43.260;27.812;2023-09-12T13:25:51;1.83;;;1.70;;
10114;SDS011;5097;43.260;27.812;2023-09-12T13:28:35;1.88;;;1.52;;
10114;SDS011;5097;43.260;27.812;2023-09-12T13:31:19;1.40;;;1.30;;
10114;SDS011;5097;43.260;27.812;2023-09-12T13:34:03;2.22;;;2.08;;
10114;SDS011;5097;43.260;27.812;2023-09-12T13:36:48;1.40;;;1.30;;
10114;SDS011;5097;43.260;27.812;2023-09-12T13:39:51;1.17;;;1.08;;
10114;SDS011;5097;43.260;27.812;2023-09-12T13:42:35;1.35;;;1.33;;
10114;SDS011;5097;43.260;27.812;2023-09-12T13:45:19;1.50;;;1.40;;
10114;SDS011;5097;43.260;27.812;2023-09-12T13:48:04;1.23;;;1.23;;
10114;SDS011;5097;43.260;27.812;2023-09-12T13:50:49;2.38;;;1.50;;
10114;SDS011;5097;43.260;27.812;2023-09-12T13:53:34;1.88;;;1.55;;
10114;SDS011;5097;43.260;27.812;2023-09-12T13:56:18;1.40;;;1.35;;
10114;SDS011;5097;43.260;27.812;2023-09-12T13:59:02;1.38;;;1.38;;
10114;SDS011;5097;43.260;27.812;2023-09-12T14:01:47;1.48;;;1.40;;
10114;SDS011;5097;43.260;27.812;2023-09-12T14:04:32;2.00;;;1.38;;
10114;SDS011;5097;43.260;27.812;2023-09-12T14:07:16;1.20;;;1.20;;
10114;SDS011;5097;43.260;27.812;2023-09-12T14:10:02;2.30;;;1.70;;
10114;SDS011;5097;43.260;27.812;2023-09-12T14:12:47;1.13;;;1.13;;
10114;SDS011;5097;43.260;27.812;2023-09-12T14:15:31;1.48;;;1.38;;
10114;SDS011;5097;43.260;27.812;2023-09-12T14:18:17;1.50;;;1.40;;
10114;SDS011;5097;43.260;27.812;2023-09-12T14:21:03;1.42;;;1.33;;
10114;SDS011;5097;43.260;27.812;2023-09-12T14:23:48;1.67;;;1.58;;
10114;SDS011;5097;43.260;27.812;2023-09-12T14:26:35;1.55;;;1.45;;
10114;SDS011;5097;43.260;27.812;2023-09-12T14:29:20;2.28;;;1.63;;
10114;SDS011;5097;43.260;27.812;2023-09-12T14:32:04;1.58;;;1.48;;
10114;SDS011;5097;43.260;27.812;2023-09-12T14:34:48;1.45;;;1.35;;
10114;SDS011;5097;43.260;27.812;2023-09-12T14:37:32;1.33;;;1.25;;
10114;SDS011;5097;43.260;27.812;2023-09-12T14:40:16;1.55;;;1.45;;
10114;SDS011;5097;43.260;27.812;2023-09-12T14:43:02;1.38;;;1.38;;
10114;SDS011;5097;43.260;27.812;2023-09-12T14:45:47;1.67;;;1.58;;
10114;SDS011;5097;43.260;27.812;2023-09-12T14:48:32;1.55;;;1.42;;
10114;SDS011;5097;43.260;27.812;2023-09-12T14:51:20;1.50;;;1.40;;
10114;SDS011;5097;43.260;27.812;2023-09-12T14:54:14;2.28;;;2.08;;
10114;SDS011;5097;43.260;27.812;2023-09-12T14:56:58;1.60;;;1.50;;
10114;SDS011;5097;43.260;27.812;2023-09-12T14:59:43;1.50;;;1.48;;
10114;SDS011;5097;43.260;27.812;2023-09-12T15:02:27;4.78;;;1.50;;
10114;SDS011;5097;43.260;27.812;2023-09-12T15:05:14;2.47;;;2.33;;
10114;SDS011;5097;43.260;27.812;2023-09-12T15:07:58;1.90;;;1.75;;
10114;SDS011;5097;43.260;27.812;2023-09-12T15:10:42;1.52;;;1.42;;
10114;SDS011;5097;43.260;27.812;2023-09-12T15:13:26;1.60;;;1.50;;
10114;SDS011;5097;43.260;27.812;2023-09-12T15:16:11;1.45;;;1.38;;
10114;SDS011;5097;43.260;27.812;2023-09-12T15:18:56;1.80;;;1.70;;
10114;SDS011;5097;43.260;27.812;2023-09-12T15:21:40;1.70;;;1.60;;
10114;SDS011;5097;43.260;27.812;2023-09-12T15:24:24;1.67;;;1.58;;
10114;SDS011;5097;43.260;27.812;2023-09-12T15:27:09;2.35;;;2.15;;
10114;SDS011;5097;43.260;27.812;2023-09-12T15:29:53;1.95;;;1.85;;
10114;SDS011;5097;43.260;27.812;2023-09-12T15:32:38;1.60;;;1.50;;
10114;SDS011;5097;43.260;27.812;2023-09-12T15:35:22;1.80;;;1.70;;
10114;SDS011;5097;43.260;27.812;2023-09-12T15:38:06;2.42;;;2.22;;
10114;SDS011;5097;43.260;27.812;2023-09-12T15:40:51;1.98;;;1.80;;
10114;SDS011;5097;43.260;27.812;2023-09-12T15:43:40;2.17;;;1.92;;
10114;SDS011;5097;43.260;27.812;2023-09-12T15:46:24;1.90;;;1.80;;
10114;SDS011;5097;43.260;27.812;2023-09-12T15:49:18;2.10;;;1.95;;
10114;SDS011;5097;43.260;27.812;2023-09-12T15:52:03;2.08;;;1.85;;
10114;SDS011;5097;43.260;27.812;2023-09-12T15:54:47;2.33;;;1.60;;
10114;SDS011;5097;43.260;27.812;2023-09-12T15:57:34;1.73;;;1.63;;
10114;SDS011;5097;43.260;27.812;2023-09-12T16:00:19;1.83;;;1.73;;
10114;SDS011;5097;43.260;27.812;2023-09-12T16:03:04;2.15;;;2.05;;
10114;SDS011;5097;43.260;27.812;2023-09-12T16:05:49;2.30;;;2.10;;
10114;SDS011;5097;43.260;27.812;2023-09-12T16:08:33;2.08;;;1.98;;
10114;SDS011;5097;43.260;27.812;2023-09-12T16:11:17;2.53;;;1.92;;
10114;SDS011;5097;43.260;27.812;2023-09-12T16:14:02;2.03;;;1.80;;
10114;SDS011;5097;43.260;27.812;2023-09-12T16:16:46;2.50;;;1.83;;
10114;SDS011;5097;43.260;27.812;2023-09-12T16:19:30;1.90;;;1.80;;
10114;SDS011;5097;43.260;27.812;2023-09-12T16:22:16;2.35;;;2.15;;
10114;SDS011;5097;43.260;27.812;2023-09-12T16:25:00;1.95;;;1.85;;
10114;SDS011;5097;43.260;27.812;2023-09-12T16:27:44;1.80;;;1.70;;
10114;SDS011;5097;43.260;27.812;2023-09-12T16:30:28;1.80;;;1.70;;
10114;SDS011;5097;43.260;27.812;2023-09-12T16:33:15;2.00;;;1.90;;
10114;SDS011;5097;43.260;27.812;2023-09-12T16:35:59;1.88;;;1.77;;
10114;SDS011;5097;43.260;27.812;2023-09-12T16:38:45;2.10;;;1.95;;
10114;SDS011;5097;43.260;27.812;2023-09-12T16:41:29;2.35;;;1.67;;